Muhlenburg Park, Pennsylvania
Current Conditions -  °F | °C
As of 9:54 AM on Wednesday 22 Oct 2014 (Local Time) from KRDG Reporting Station
Light Rain Light Rain  
Wind Chill: 54°   Ceiling: 1400
Heat Index: 54°   Visibility: 10mi
Dew Point: 50°   Wind: 10mph
Humidity: 86%   Direction: 10°N
Pressure: 29.93"   Gusts: NA
Location:  40.3999°N, 75.9335°W
Report Text: KRDG 221354Z 01009KT 10SM -RA OVC014 12/10 A2993 RMK AO2 SLP141 P0002 T01220100
Loading
Personal Weather Stations






























Interactive Weather Map
Tropical Storm Tracking
New forecast layout! Learn more

10-Day Weather Forecast

Advertisements
Track Severe Weather on mobile